Time;durP1;ratioP1;P1;durP2;ratioP2;P2;SDS_P1;SDS_P2;PMS_P1;PMS_P2;Temp;Humidity;BMP_temperature;BMP_pressure;BME280_temperature;BME280_humidity;BME280_pressure;Samples;Min_cycle;Max_cycle;Signal;HPM_P1;HPM_P2
2023/07/15 00:01:19;;;;;;;8.45;3.00;;;;;;;21.65;79.32;100372.91;4922224;29;20090;-63
2023/07/15 00:03:46;;;;;;;8.50;3.03;;;;;;;21.66;78.60;100369.19;4927102;29;20159;-63
2023/07/15 00:06:15;;;;;;;6.00;2.80;;;;;;;21.70;75.06;100363.19;4930118;29;20081;-64
2023/07/15 00:08:42;;;;;;;;;;;;;;;21.74;72.21;100358.19;4923354;29;20058;-64
2023/07/15 00:11:15;;;;;;;4.97;2.50;;;;;;;21.86;73.72;100358.19;4923247;29;19931;-65
2023/07/15 00:13:41;;;;;;;6.18;2.72;;;;;;;21.89;71.07;100360.38;4918907;29;20051;-63
2023/07/15 00:16:08;;;;;;;7.53;2.47;;;;;;;21.88;71.39;100366.78;4931150;29;20591;-65
2023/07/15 00:18:35;;;;;;;5.35;2.63;;;;;;;21.89;69.61;100365.72;4918015;29;20047;-67
2023/07/15 00:21:14;;;;;;;6.35;2.78;;;;;;;21.95;69.60;100362.13;4922076;29;20063;-64
2023/07/15 00:23:41;;;;;;;7.30;2.38;;;;;;;21.92;69.07;100365.28;4918053;29;20071;-64
2023/07/15 00:26:08;;;;;;;6.22;2.15;;;;;;;21.88;67.46;100353.44;4923756;29;20477;-64
2023/07/15 00:28:36;;;;;;;4.20;2.50;;;;;;;21.92;69.75;100355.41;4928325;29;20052;-64
2023/07/15 00:31:09;;;;;;;;;;;;;;;21.91;66.67;100353.78;4920795;29;20062;-63
2023/07/15 00:33:35;;;;;;;5.63;2.53;;;;;;;21.92;65.59;100357.28;4927810;29;19962;-63
2023/07/15 00:36:01;;;;;;;5.63;2.30;;;;;;;21.90;67.19;100356.69;4917369;28;20055;-64
2023/07/15 00:38:28;;;;;;;4.88;2.42;;;;;;;21.88;65.39;100351.56;4924119;29;20539;-65
2023/07/15 00:40:55;;;;;;;4.32;2.30;;;;;;;21.83;64.00;100354.13;4916791;29;20055;-64
2023/07/15 00:43:56;;;;;;;3.90;2.30;;;;;;;21.85;63.82;100352.03;4931412;29;20126;-64
2023/07/15 00:46:54;;;;;;;3.85;2.00;;;;;;;21.82;63.11;100347.16;4922302;29;20079;-65
2023/07/15 00:49:22;;;;;;;;;;;;;;;21.84;62.31;100345.06;4923243;29;20047;-63
2023/07/15 00:52:09;;;;;;;;;;;;;;;21.85;62.28;100352.03;4916636;29;20001;-63
2023/07/15 00:54:40;;;;;;;5.00;2.50;;;;;;;21.85;61.71;100351.22;4928969;29;19974;-63
2023/07/15 00:57:08;;;;;;;8.65;2.30;;;;;;;21.91;61.68;100351.13;4928767;29;20166;-63
2023/07/15 00:59:36;;;;;;;6.95;2.22;;;;;;;21.92;61.36;100344.72;4922240;29;20130;-64
2023/07/15 01:02:02;;;;;;;6.63;2.40;;;;;;;21.91;61.33;100335.09;4925651;29;20056;-63
2023/07/15 01:04:29;;;;;;;5.00;2.38;;;;;;;21.90;60.85;100346.81;4913817;29;20150;-63
2023/07/15 01:06:56;;;;;;;4.45;2.50;;;;;;;21.89;60.80;100352.38;4922545;29;20560;-63
2023/07/15 01:09:25;;;;;;;5.80;2.50;;;;;;;21.87;60.62;100352.59;4922523;29;20401;-63
2023/07/15 01:11:51;;;;;;;6.72;2.42;;;;;;;21.90;61.15;100344.16;4925127;29;20047;-64
2023/07/15 01:14:18;;;;;;;4.95;2.10;;;;;;;21.96;61.24;100354.94;4929011;29;20064;-64
2023/07/15 01:16:47;;;;;;;6.53;2.33;;;;;;;21.98;60.81;100355.53;4921183;29;20047;-64
2023/07/15 01:19:18;;;;;;;7.90;2.42;;;;;;;22.01;61.28;100353.22;4920890;29;20146;-63
2023/07/15 01:21:51;;;;;;;9.15;2.58;;;;;;;22.05;60.02;100357.03;4911175;29;20158;-63
2023/07/15 01:24:19;;;;;;;5.97;2.40;;;;;;;22.06;60.10;100350.63;4932252;29;20162;-63
2023/07/15 01:26:47;;;;;;;8.65;2.38;;;;;;;22.08;59.60;100359.22;4916061;29;20401;-63
2023/07/15 01:29:13;;;;;;;4.03;2.10;;;;;;;22.15;58.45;100359.13;4929880;29;20102;-63
2023/07/15 01:31:43;;;;;;;4.13;1.95;;;;;;;22.19;58.59;100356.75;4920053;29;20191;-62
2023/07/15 01:34:10;;;;;;;4.63;2.10;;;;;;;22.25;58.19;100356.69;4916310;29;20048;-64
2023/07/15 01:36:37;;;;;;;3.55;2.03;;;;;;;22.30;58.09;100363.97;4923773;29;20560;-62
2023/07/15 01:39:09;;;;;;;3.92;2.03;;;;;;;22.34;57.54;100345.63;4917393;29;20055;-63
2023/07/15 01:41:36;;;;;;;4.53;2.33;;;;;;;22.35;57.61;100355.28;4910884;29;20696;-64
2023/07/15 01:44:04;;;;;;;5.50;2.22;;;;;;;22.42;56.77;100355.94;4905253;29;20052;-62
2023/07/15 01:46:34;;;;;;;4.45;1.92;;;;;;;;;;4919460;29;20154;-64
2023/07/15 01:49:03;;;;;;;5.43;2.10;;;;;;;22.48;56.24;100358.50;4917765;29;20063;-64
2023/07/15 01:51:30;;;;;;;4.63;2.08;;;;;;;22.54;55.94;100356.72;4918003;29;20051;-63
2023/07/15 01:53:56;;;;;;;4.90;2.28;;;;;;;22.57;55.55;100344.75;4923373;29;20070;-64
2023/07/15 01:56:23;;;;;;;5.15;2.40;;;;;;;22.60;55.69;100344.28;4920568;29;20059;-63
2023/07/15 01:58:49;;;;;;;3.70;1.85;;;;;;;22.62;56.07;100344.84;4919240;29;20098;-64
2023/07/15 02:01:15;;;;;;;4.10;2.30;;;;;;;22.58;56.27;100339.19;4916177;29;20768;-65
2023/07/15 02:03:42;;;;;;;5.38;2.20;;;;;;;22.54;55.86;100348.69;4914629;29;20056;-64
2023/07/15 02:06:09;;;;;;;6.80;2.40;;;;;;;22.55;55.89;100346.88;4923260;29;20058;-65
2023/07/15 02:08:35;;;;;;;12.75;2.40;;;;;;;22.54;55.76;100339.88;4921355;29;20524;-64
2023/07/15 02:11:02;;;;;;;3.90;2.00;;;;;;;22.54;55.73;100339.88;4929424;29;20202;-67
2023/07/15 02:13:28;;;;;;;9.25;2.25;;;;;;;22.51;55.62;100347.31;4919301;28;20104;-67
2023/07/15 02:15:55;;;;;;;6.68;2.10;;;;;;;22.52;55.81;100350.81;4919634;29;20060;-68
2023/07/15 02:18:22;;;;;;;3.08;1.83;;;;;;;22.50;55.66;100358.25;4914408;29;20052;-67
2023/07/15 02:20:49;;;;;;;9.82;2.20;;;;;;;22.45;55.66;100356.28;4931657;29;20138;-63
2023/07/15 02:23:19;;;;;;;5.28;2.30;;;;;;;22.44;55.63;100346.66;4909700;29;20090;-63
2023/07/15 02:25:45;;;;;;;5.07;2.00;;;;;;;22.40;55.98;100352.69;4921089;29;20075;-65
2023/07/15 02:28:12;;;;;;;4.20;2.00;;;;;;;22.39;56.31;100351.91;4925316;29;20074;-66
2023/07/15 02:30:38;;;;;;;7.63;2.00;;;;;;;22.37;56.08;100362.00;4915986;29;20063;-65
2023/07/15 02:33:06;;;;;;;3.55;2.00;;;;;;;22.34;56.23;100351.78;4928359;29;20055;-64
2023/07/15 02:35:33;;;;;;;4.82;1.83;;;;;;;22.31;56.46;100362.94;4922473;29;20104;-64
2023/07/15 02:38:00;;;;;;;10.32;1.90;;;;;;;22.25;56.73;100362.03;4925431;29;20063;-63
2023/07/15 02:40:26;;;;;;;3.22;1.90;;;;;;;22.19;56.77;100362.09;4927661;29;20123;-63
2023/07/15 02:42:53;;;;;;;5.57;2.17;;;;;;;22.16;56.99;100358.06;4897453;29;20060;-64
2023/07/15 02:45:20;;;;;;;7.90;2.25;;;;;;;22.14;57.56;100370.03;4924665;29;20050;-63
2023/07/15 02:47:46;;;;;;;6.47;2.42;;;;;;;22.07;57.74;100368.28;4920862;29;20452;-64
2023/07/15 02:50:13;;;;;;;3.70;2.35;;;;;;;22.00;57.65;100369.47;4928996;29;20052;-63
2023/07/15 02:52:42;;;;;;;2.90;1.90;;;;;;;21.99;58.08;100370.50;4919334;29;20110;-64
2023/07/15 02:55:08;;;;;;;4.20;2.08;;;;;;;21.98;58.52;100361.66;4927700;29;20146;-66
2023/07/15 02:57:35;;;;;;;3.63;2.28;;;;;;;21.92;58.55;100363.41;4924253;29;20067;-63
2023/07/15 03:00:09;;;;;;;7.47;2.22;;;;;;;21.93;58.67;100369.56;4917863;29;20083;-63
2023/07/15 03:02:35;;;;;;;4.10;2.00;;;;;;;21.88;58.86;100372.94;4928438;29;20131;-65
2023/07/15 03:05:02;;;;;;;4.35;2.05;;;;;;;21.82;58.86;100370.41;4923838;29;20062;-65
2023/07/15 03:07:29;;;;;;;6.03;1.88;;;;;;;21.79;59.23;100368.16;4910436;29;20054;-65
2023/07/15 03:09:56;;;;;;;3.25;1.75;;;;;;;21.76;59.61;100368.63;4919643;29;20056;-63
2023/07/15 03:12:24;;;;;;;7.80;2.25;;;;;;;21.74;59.29;100366.22;4901210;29;20047;-62
2023/07/15 03:14:51;;;;;;;10.35;2.15;;;;;;;21.71;59.36;100369.31;4927499;29;20056;-64
2023/07/15 03:17:17;;;;;;;3.88;1.90;;;;;;;21.68;59.78;100356.47;4922553;29;20143;-64
2023/07/15 03:19:44;;;;;;;3.63;2.20;;;;;;;21.67;59.97;100354.81;4927155;29;20416;-64
2023/07/15 03:22:11;;;;;;;3.17;1.80;;;;;;;21.64;60.68;100355.28;4922599;29;20051;-65
2023/07/15 03:24:38;;;;;;;3.75;1.67;;;;;;;21.59;60.54;100363.97;4924668;29;20040;-64
2023/07/15 03:27:04;;;;;;;6.10;2.35;;;;;;;21.55;60.79;100368.16;4914243;28;20088;-64
2023/07/15 03:29:31;;;;;;;6.45;1.83;;;;;;;21.55;61.42;100362.81;4920087;29;20048;-63
2023/07/15 03:31:57;;;;;;;4.63;2.22;;;;;;;21.53;61.67;100360.38;4926607;29;20051;-64
2023/07/15 03:34:24;;;;;;;3.83;2.13;;;;;;;21.52;61.95;100365.94;4919578;29;20051;-64
2023/07/15 03:36:52;;;;;;;3.88;1.98;;;;;;;21.46;62.15;100364.19;4926211;29;20138;-64
2023/07/15 03:39:21;;;;;;;6.97;1.85;;;;;;;21.49;64.05;100364.53;4915696;28;20509;-64
2023/07/15 03:41:47;;;;;;;4.45;2.30;;;;;;;21.45;66.04;100355.38;4923364;29;20083;-64
2023/07/15 03:44:14;;;;;;;4.93;2.20;;;;;;;21.38;68.23;100362.63;4919939;29;20048;-64
2023/07/15 03:46:40;;;;;;;4.82;1.90;;;;;;;21.32;70.32;100361.69;4929572;29;20087;-64
2023/07/15 03:49:07;;;;;;;5.10;2.25;;;;;;;21.25;70.98;100365.53;4924729;29;20070;-63
2023/07/15 03:51:35;;;;;;;3.97;2.10;;;;;;;21.18;71.79;100368.28;4918562;28;20083;-64
2023/07/15 03:54:01;;;;;;;5.32;2.38;;;;;;;21.11;72.72;100365.72;4903161;29;20774;-64
2023/07/15 03:56:28;;;;;;;6.15;2.25;;;;;;;21.11;71.87;100368.38;4919739;29;20147;-64
2023/07/15 03:58:54;;;;;;;8.30;2.90;;;;;;;21.10;73.41;100376.59;4902400;29;20143;-64
2023/07/15 04:01:20;;;;;;;3.42;2.10;;;;;;;21.07;73.50;100366.38;4918898;29;20131;-63
2023/07/15 04:03:47;;;;;;;3.72;1.92;;;;;;;21.06;73.33;100368.22;4923584;29;20060;-64
2023/07/15 04:06:14;;;;;;;6.97;1.98;;;;;;;21.03;76.00;100370.53;4920796;29;20308;-65
2023/07/15 04:08:41;;;;;;;7.18;2.30;;;;;;;21.00;77.11;100368.34;4916680;29;20098;-64
2023/07/15 04:11:08;;;;;;;5.13;2.30;;;;;;;20.94;77.62;100360.19;4926799;29;20062;-64
2023/07/15 04:13:35;;;;;;;6.50;1.95;;;;;;;20.91;78.33;100367.81;4910020;29;20063;-64
2023/07/15 04:16:01;;;;;;;4.32;1.90;;;;;;;20.90;79.00;100368.88;4923481;29;20585;-65
2023/07/15 04:18:28;;;;;;;5.20;2.13;;;;;;;20.88;79.31;100366.44;4921422;29;20676;-64
2023/07/15 04:20:57;;;;;;;5.63;2.10;;;;;;;20.86;79.08;100373.84;4928601;29;20063;-64
2023/07/15 04:23:23;;;;;;;3.92;2.17;;;;;;;20.85;81.56;100376.72;4927870;29;20587;-63
2023/07/15 04:25:50;;;;;;;5.88;1.95;;;;;;;20.83;80.70;100373.47;4918922;29;20086;-65
2023/07/15 04:28:17;;;;;;;4.38;2.22;;;;;;;20.82;82.07;100374.53;4928340;29;20401;-65
2023/07/15 04:30:43;;;;;;;4.68;2.38;;;;;;;20.76;83.58;100373.56;4915415;29;20527;-64
2023/07/15 04:33:10;;;;;;;7.22;2.20;;;;;;;20.73;83.93;100382.00;4921510;29;20071;-64
2023/07/15 04:35:37;;;;;;;5.30;2.40;;;;;;;20.71;85.24;100371.56;4917566;29;20044;-66
2023/07/15 04:38:03;;;;;;;3.57;2.20;;;;;;;20.69;85.10;100370.16;4919271;29;20911;-64
2023/07/15 04:40:30;;;;;;;3.40;2.13;;;;;;;20.72;84.54;100383.06;4926636;29;20142;-64
2023/07/15 04:42:56;;;;;;;6.40;2.20;;;;;;;20.71;79.43;100376.09;4915740;29;20056;-65
2023/07/15 04:45:23;;;;;;;6.47;2.58;;;;;;;20.77;82.02;100380.50;4922376;29;20051;-64
2023/07/15 04:47:49;;;;;;;5.32;2.38;;;;;;;20.80;80.76;100380.06;4911211;29;20150;-64
2023/07/15 04:50:16;;;;;;;5.35;2.05;;;;;;;20.86;79.44;100383.69;4926888;29;20059;-64
2023/07/15 04:52:42;;;;;;;5.45;2.08;;;;;;;20.88;78.31;100385.09;4920971;29;20139;-64
2023/07/15 04:55:09;;;;;;;6.38;2.70;;;;;;;20.92;78.46;100382.78;4928819;29;20494;-63
2023/07/15 04:57:36;;;;;;;5.25;2.33;;;;;;;20.96;79.96;100385.81;4927003;29;20536;-65
2023/07/15 05:00:04;;;;;;;5.72;2.40;;;;;;;20.96;80.30;100385.81;4912110;29;20111;-64
2023/07/15 05:02:31;;;;;;;;;;;;;;;21.01;79.90;100396.59;4921310;29;20047;-64
2023/07/15 05:04:57;;;;;;;5.10;2.33;;;;;;;21.02;77.12;100393.72;4918234;29;19933;-64
2023/07/15 05:07:24;;;;;;;6.55;2.47;;;;;;;20.99;76.43;100394.16;4911455;29;20849;-66
2023/07/15 05:09:50;;;;;;;4.50;2.35;;;;;;;21.03;75.65;100398.03;4919943;28;20437;-64
2023/07/15 05:12:17;;;;;;;7.00;2.40;;;;;;;21.06;76.10;100396.75;4918737;29;20311;-66
2023/07/15 05:14:43;;;;;;;6.75;2.28;;;;;;;21.04;74.62;100398.84;4918911;29;20048;-64
2023/07/15 05:17:10;;;;;;;4.47;2.17;;;;;;;21.03;76.30;100400.69;4919377;29;20048;-63
2023/07/15 05:19:36;;;;;;;5.28;2.50;;;;;;;21.05;75.91;100400.44;4919040;29;20047;-65
2023/07/15 05:22:04;;;;;;;5.57;2.47;;;;;;;21.14;75.86;100399.91;4920106;29;20470;-64
2023/07/15 05:24:31;;;;;;;3.65;2.60;;;;;;;21.17;75.88;100395.16;4928964;29;20417;-63
2023/07/15 05:26:58;;;;;;;5.27;2.30;;;;;;;21.23;75.46;100405.75;4922334;28;21101;-64
2023/07/15 05:29:25;;;;;;;5.68;2.53;;;;;;;21.25;74.79;100398.34;4921296;29;20225;-64
2023/07/15 05:31:51;;;;;;;5.10;2.53;;;;;;;21.28;77.00;100400.53;4924457;29;20153;-64
2023/07/15 05:34:19;;;;;;;5.07;2.50;;;;;;;21.30;76.66;100401.13;4916725;29;20091;-66
2023/07/15 05:36:47;;;;;;;7.38;2.50;;;;;;;21.35;76.53;100402.31;4922270;29;20095;-64
2023/07/15 05:39:14;;;;;;;8.32;2.50;;;;;;;21.39;76.64;100401.63;4917630;29;20055;-65
2023/07/15 05:41:40;;;;;;;4.78;2.25;;;;;;;21.42;78.03;100397.66;4921563;29;20067;-64
2023/07/15 05:44:07;;;;;;;3.78;2.20;;;;;;;21.51;75.71;100396.34;4916268;29;20051;-64
2023/07/15 05:46:33;;;;;;;8.00;2.47;;;;;;;21.53;76.54;100397.72;4923924;29;20102;-65
2023/07/15 05:49:00;;;;;;;6.45;2.65;;;;;;;21.57;76.60;100398.09;4922425;29;20047;-64
2023/07/15 05:51:26;;;;;;;6.07;2.67;;;;;;;21.63;75.71;100407.84;4918655;29;20079;-64
2023/07/15 05:53:53;;;;;;;4.10;2.03;;;;;;;21.67;76.25;100394.84;4927579;29;20098;-64
2023/07/15 05:56:19;;;;;;;3.85;2.28;;;;;;;21.71;76.20;100396.03;4918101;29;20147;-66
2023/07/15 05:58:46;;;;;;;8.15;2.63;;;;;;;21.71;76.16;100393.34;4927441;29;20103;-64
2023/07/15 06:01:12;;;;;;;7.25;2.80;;;;;;;21.73;74.76;100396.59;4924454;29;20501;-64
2023/07/15 06:03:40;;;;;;;4.33;2.17;;;;;;;21.78;75.64;100399.41;4926712;29;20059;-64
2023/07/15 06:06:07;;;;;;;4.57;2.47;;;;;;;21.80;73.70;100399.97;4927777;29;20560;-65
2023/07/15 06:08:33;;;;;;;9.07;2.70;;;;;;;21.87;73.35;100411.34;4919495;29;20048;-64
2023/07/15 06:11:00;;;;;;;5.20;2.20;;;;;;;21.90;73.88;100407.41;4914136;29;20452;-64
2023/07/15 06:13:26;;;;;;;5.15;2.10;;;;;;;21.96;74.66;100417.16;4921047;29;20056;-64
2023/07/15 06:15:56;;;;;;;6.20;2.33;;;;;;;22.01;74.26;100411.13;4929368;29;20142;-63
2023/07/15 06:18:23;;;;;;;6.35;2.35;;;;;;;22.05;74.17;100405.09;4924113;29;20052;-64
2023/07/15 06:20:49;;;;;;;7.10;2.47;;;;;;;22.02;72.71;100404.75;4929788;29;20461;-63
2023/07/15 06:23:16;;;;;;;7.60;2.63;;;;;;;22.03;73.48;100404.53;4926435;29;20090;-64
2023/07/15 06:25:42;;;;;;;6.45;2.65;;;;;;;22.04;74.08;100397.31;4919077;28;20666;-65
2023/07/15 06:28:09;;;;;;;5.97;2.55;;;;;;;22.07;74.78;100399.50;4925803;29;20081;-64
2023/07/15 06:30:35;;;;;;;4.07;2.40;;;;;;;22.11;75.48;100411.38;4910225;29;20103;-64
2023/07/15 06:33:02;;;;;;;5.82;2.38;;;;;;;22.15;76.34;100409.88;4925600;29;20048;-64
2023/07/15 06:35:29;;;;;;;5.20;2.53;;;;;;;22.21;78.68;100408.94;4922743;28;20079;-65
2023/07/15 06:37:55;;;;;;;3.78;2.30;;;;;;;22.27;80.04;100415.22;4919045;29;20059;-64
2023/07/15 06:40:22;;;;;;;6.57;2.50;;;;;;;22.29;83.03;100416.63;4926865;29;20055;-64
2023/07/15 06:42:48;;;;;;;4.10;2.35;;;;;;;22.35;85.62;100416.75;4900828;29;20134;-65
2023/07/15 06:45:20;;;;;;;6.68;2.50;;;;;;;22.40;87.97;100422.97;4929753;29;20420;-63
2023/07/15 06:47:47;;;;;;;5.82;2.30;;;;;;;22.44;88.25;100434.84;4922471;29;20051;-64
2023/07/15 06:50:13;;;;;;;4.05;2.00;;;;;;;22.45;89.23;100425.78;4921862;29;20059;-64
2023/07/15 06:52:40;;;;;;;3.80;2.22;;;;;;;22.49;89.78;100423.44;4924152;29;20819;-64
2023/07/15 06:55:06;;;;;;;6.22;2.00;;;;;;;22.52;91.31;100420.28;4905038;29;20089;-64
2023/07/15 06:57:33;;;;;;;5.32;2.00;;;;;;;22.49;91.25;100418.91;4929411;29;20052;-65
2023/07/15 06:59:59;;;;;;;2.80;1.85;;;;;;;22.50;92.21;100419.72;4916095;29;20525;-63
2023/07/15 07:02:26;;;;;;;6.82;2.17;;;;;;;22.55;92.47;100421.69;4928197;29;20907;-63
2023/07/15 07:04:52;;;;;;;4.13;2.13;;;;;;;22.53;94.09;100413.91;4915917;29;20082;-63
2023/07/15 07:07:22;;;;;;;6.05;1.70;;;;;;;22.58;93.31;100414.03;4925226;29;20051;-64
2023/07/15 07:09:49;;;;;;;5.18;2.20;;;;;;;22.68;94.46;100426.78;4927444;29;20048;-64
2023/07/15 07:12:15;;;;;;;5.40;2.10;;;;;;;22.76;93.71;100434.44;4919319;29;20151;-64
2023/07/15 07:14:41;;;;;;;6.53;2.15;;;;;;;22.84;94.32;100428.72;4911212;29;20079;-63
2023/07/15 07:17:08;;;;;;;4.22;2.15;;;;;;;22.93;94.34;100436.34;4923860;29;20055;-65
2023/07/15 07:19:34;;;;;;;3.05;2.08;;;;;;;23.00;93.99;100434.38;4918641;29;20159;-65
2023/07/15 07:22:01;;;;;;;4.63;2.10;;;;;;;23.04;94.40;100422.97;4916836;29;20138;-65
2023/07/15 07:24:27;;;;;;;4.68;1.90;;;;;;;23.16;93.70;100420.25;4928479;29;20057;-63
2023/07/15 07:26:54;;;;;;;4.82;2.05;;;;;;;23.20;95.08;100413.34;4929854;29;20867;-64
2023/07/15 07:29:21;;;;;;;5.10;2.13;;;;;;;23.17;94.96;100408.50;4904341;29;20142;-63
2023/07/15 07:31:48;;;;;;;4.53;2.00;;;;;;;23.17;89.02;100405.81;4931474;29;20581;-64
2023/07/15 07:34:14;;;;;;;5.53;2.10;;;;;;;23.25;87.50;100408.09;4913416;29;20115;-65
2023/07/15 07:36:41;;;;;;;3.95;2.22;;;;;;;23.32;85.10;100413.28;4933974;29;20054;-64
2023/07/15 07:39:07;;;;;;;2.83;1.92;;;;;;;23.29;81.65;100413.78;4924090;29;20134;-63
2023/07/15 07:41:34;;;;;;;4.18;1.95;;;;;;;23.38;83.35;100425.72;4928228;29;20473;-64
2023/07/15 07:44:00;;;;;;;4.45;1.70;;;;;;;23.49;83.88;100432.88;4925650;29;20182;-64
2023/07/15 07:46:27;;;;;;;3.53;1.90;;;;;;;23.59;81.57;100423.41;4921648;28;20516;-64
2023/07/15 07:48:53;;;;;;;5.78;1.95;;;;;;;23.67;79.27;100439.06;4921062;29;20142;-65
2023/07/15 07:51:19;;;;;;;3.55;2.08;;;;;;;23.71;77.72;100431.34;4920284;29;20062;-64
2023/07/15 07:53:46;;;;;;;3.72;2.03;;;;;;;23.72;76.20;100433.78;4927437;29;20056;-64
2023/07/15 07:56:12;;;;;;;6.90;2.38;;;;;;;23.78;76.27;100435.53;4921803;29;20493;-64
2023/07/15 07:58:39;;;;;;;6.95;2.05;;;;;;;23.90;76.84;100440.81;4924543;29;20051;-64
2023/07/15 08:01:06;;;;;;;5.90;2.33;;;;;;;24.02;76.42;100435.34;4920522;29;20056;-64
2023/07/15 08:03:32;;;;;;;7.88;2.20;;;;;;;24.28;76.04;100439.19;4918137;28;20489;-65
2023/07/15 08:05:59;;;;;;;5.17;2.07;;;;;;;24.39;72.97;100435.63;4925401;29;20504;-65
2023/07/15 08:08:26;;;;;;;9.35;2.70;;;;;;;24.43;71.81;100433.25;4920881;29;20058;-64
2023/07/15 08:10:53;;;;;;;4.32;1.90;;;;;;;24.52;73.10;100428.28;4924457;29;20079;-64
2023/07/15 08:13:19;;;;;;;4.07;1.90;;;;;;;24.59;72.81;100426.25;4914888;29;20050;-64
2023/07/15 08:15:46;;;;;;;4.35;2.00;;;;;;;24.59;72.57;100436.97;4918019;29;20055;-64
2023/07/15 08:18:13;;;;;;;3.38;1.90;;;;;;;24.67;73.88;100448.06;4926592;29;20536;-64
2023/07/15 08:20:42;;;;;;;5.10;2.40;;;;;;;24.65;74.58;100426.06;4919938;29;20047;-64
2023/07/15 08:23:09;;;;;;;4.68;1.60;;;;;;;24.69;74.14;100420.19;4928183;29;20055;-65
2023/07/15 08:25:37;;;;;;;3.38;1.63;;;;;;;24.69;75.61;100423.69;4918912;29;20052;-64
2023/07/15 08:28:04;;;;;;;3.58;1.70;;;;;;;24.56;74.78;100430.25;4921349;29;20846;-65
2023/07/15 08:30:35;;;;;;;4.75;1.85;;;;;;;24.54;76.34;100424.31;4913401;29;20340;-65
2023/07/15 08:33:06;;;;;;;6.18;1.80;;;;;;;24.63;76.75;100436.22;4926791;29;20792;-64
2023/07/15 08:35:34;;;;;;;4.05;1.42;;;;;;;24.76;78.31;100439.59;4922355;29;20051;-64
2023/07/15 08:38:00;;;;;;;3.15;1.60;;;;;;;24.82;78.46;100444.78;4920727;29;20052;-65
2023/07/15 08:40:27;;;;;;;2.80;1.48;;;;;;;24.89;78.20;100446.44;4910386;29;20410;-66
2023/07/15 08:42:54;;;;;;;2.00;1.40;;;;;;;25.01;76.63;100445.25;4918094;29;20052;-66
2023/07/15 08:45:24;;;;;;;3.17;1.52;;;;;;;25.16;75.81;100449.97;4926547;29;20103;-64
2023/07/15 08:47:52;;;;;;;2.08;1.33;;;;;;;25.11;75.44;100452.63;4919200;29;20485;-64
2023/07/15 08:50:19;;;;;;;2.85;1.17;;;;;;;25.12;74.72;100454.22;4927265;29;20051;-64
2023/07/15 08:52:46;;;;;;;2.17;1.20;;;;;;;25.20;74.85;100453.75;4925000;29;20059;-65
2023/07/15 08:55:13;;;;;;;2.28;1.23;;;;;;;25.38;74.39;100451.81;4914274;28;20106;-65
2023/07/15 08:57:40;;;;;;;2.67;1.37;;;;;;;25.42;73.82;100474.41;4926655;29;20055;-65
2023/07/15 09:00:11;;;;;;;2.72;1.27;;;;;;;25.39;71.37;100465.00;4918953;29;20051;-63
2023/07/15 09:02:39;;;;;;;7.95;1.30;;;;;;;25.33;73.21;100455.28;4926667;29;20056;-65
2023/07/15 09:05:10;;;;;;;3.42;1.45;;;;;;;25.51;73.87;100451.41;4914660;29;20055;-64
2023/07/15 09:07:57;;;;;;;2.78;1.52;;;;;;;25.41;71.34;100470.91;4922453;29;20058;-65
2023/07/15 09:10:24;;;;;;;5.10;1.30;;;;;;;25.36;71.63;100462.00;4923592;29;20469;-64
2023/07/15 09:12:55;;;;;;;3.33;1.40;;;;;;;25.29;72.19;100474.84;4921580;29;20564;-65
2023/07/15 09:15:22;;;;;;;3.78;1.40;;;;;;;25.34;73.21;100478.34;4924887;29;20485;-64
2023/07/15 09:17:56;;;;;;;2.40;1.35;;;;;;;25.12;72.71;100491.78;4917939;29;20143;-65
2023/07/15 09:20:25;;;;;;;2.47;1.17;;;;;;;25.13;73.01;100492.59;4925612;29;20063;-64
2023/07/15 09:22:55;;;;;;;2.55;1.10;;;;;;;25.02;73.38;100484.44;4908627;29;20806;-65
2023/07/15 09:25:23;;;;;;;3.67;1.30;;;;;;;25.01;74.18;100501.59;4924491;29;20048;-64
2023/07/15 09:27:50;;;;;;;2.28;1.23;;;;;;;25.04;74.70;100495.72;4923679;29;20047;-64
2023/07/15 09:30:18;;;;;;;2.50;1.40;;;;;;;25.06;75.92;100503.53;4928770;29;20146;-64
2023/07/15 09:32:46;;;;;;;3.05;1.25;;;;;;;25.06;76.12;100514.25;4930981;29;20063;-63
2023/07/15 09:35:14;;;;;;;4.82;1.50;;;;;;;25.03;77.48;100512.06;4917972;29;21137;-65
2023/07/15 09:37:41;;;;;;;4.35;1.48;;;;;;;24.94;77.59;100524.31;4926284;29;20062;-64
2023/07/15 09:40:08;;;;;;;2.55;1.50;;;;;;;24.99;78.25;100519.81;4923452;29;20047;-64
2023/07/15 09:42:52;;;;;;;3.85;1.92;;;;;;;24.95;77.33;100516.03;4928057;29;20059;-64
2023/07/15 09:45:40;;;;;;;2.40;1.50;;;;;;;24.76;76.90;100504.78;4920844;29;20062;-64
2023/07/15 09:48:10;;;;;;;1.67;1.25;;;;;;;24.77;78.01;100511.75;4912796;29;20075;-65
2023/07/15 09:50:39;;;;;;;2.95;1.35;;;;;;;24.74;77.63;100498.03;4916584;29;20047;-65
2023/07/15 09:53:06;;;;;;;3.88;1.70;;;;;;;24.64;78.25;100507.56;4921154;29;20432;-64
2023/07/15 09:55:36;;;;;;;5.93;1.92;;;;;;;24.66;77.93;100508.13;4928132;29;20138;-64
2023/07/15 09:58:10;;;;;;;2.85;1.60;;;;;;;24.75;77.70;100516.56;4922036;29;20091;-64
2023/07/15 10:00:42;;;;;;;6.32;2.03;;;;;;;24.91;77.35;100506.81;4929759;29;20086;-64
2023/07/15 10:03:17;;;;;;;6.60;1.50;;;;;;;25.04;76.83;100501.09;4913045;28;20055;-65
2023/07/15 10:05:46;;;;;;;5.07;1.30;;;;;;;25.25;76.47;100501.38;4922772;29;20139;-64
2023/07/15 10:08:13;;;;;;;2.08;1.30;;;;;;;25.38;74.61;100506.31;4924825;29;20058;-65
2023/07/15 10:10:40;;;;;;;4.55;1.60;;;;;;;25.35;71.41;100519.47;4911855;29;20089;-65
2023/07/15 10:13:08;;;;;;;3.47;1.75;;;;;;;25.34;72.02;100509.78;4926931;29;20413;-65
2023/07/15 10:15:34;;;;;;;;;;;;;;;25.39;70.86;100525.94;4923074;29;20523;-65
2023/07/15 10:18:17;;;;;;;5.97;2.30;;;;;;;25.24;69.86;100519.31;4923262;29;19926;-65
2023/07/15 10:20:54;;;;;;;4.75;1.70;;;;;;;25.04;68.35;100516.38;4897812;29;20067;-63
2023/07/15 10:23:26;;;;;;;5.63;1.90;;;;;;;25.04;70.22;100524.44;4928469;29;20143;-64
2023/07/15 10:26:01;;;;;;;4.43;1.80;;;;;;;25.07;71.19;100523.94;4922413;29;20489;-64
2023/07/15 10:28:36;;;;;;;6.55;2.05;;;;;;;25.02;69.70;100522.00;4929244;29;20055;-65
2023/07/15 10:31:11;;;;;;;4.40;1.90;;;;;;;25.02;69.69;100519.31;4916349;29;20147;-66
2023/07/15 10:33:55;;;;;;;6.88;1.90;;;;;;;24.90;70.42;100515.94;4922871;29;20062;-65
2023/07/15 10:36:41;;;;;;;3.67;1.70;;;;;;;24.84;71.44;100531.16;4921801;29;20052;-64
2023/07/15 10:39:16;;;;;;;4.35;1.80;;;;;;;24.83;71.90;100513.44;4928713;29;20485;-64
2023/07/15 10:41:53;;;;;;;8.70;1.90;;;;;;;24.76;71.95;100510.13;4928794;29;20548;-63
2023/07/15 10:44:20;;;;;;;5.43;2.63;;;;;;;24.81;72.90;100502.13;4922608;28;20138;-64
2023/07/15 10:46:51;;;;;;;3.78;1.80;;;;;;;24.81;76.62;100517.44;4923506;29;20694;-65
2023/07/15 10:49:18;;;;;;;4.40;1.58;;;;;;;24.60;78.80;100508.28;4918399;29;20052;-64
2023/07/15 10:51:46;;;;;;;4.27;1.93;;;;;;;24.58;80.69;100495.16;4926225;29;20048;-65
2023/07/15 10:54:18;;;;;;;3.90;1.60;;;;;;;24.50;77.91;100494.72;4918508;29;20147;-63
2023/07/15 10:56:44;;;;;;;3.47;1.67;;;;;;;24.44;78.46;100488.47;4928868;29;20123;-64
2023/07/15 10:59:11;;;;;;;3.83;1.60;;;;;;;24.23;77.41;100488.19;4924067;29;20052;-64
2023/07/15 11:01:37;;;;;;;6.28;1.63;;;;;;;24.16;75.01;100500.13;4917454;29;20053;-65
2023/07/15 11:04:08;;;;;;;4.32;1.75;;;;;;;24.02;79.44;100502.31;4928396;29;20051;-64
2023/07/15 11:06:35;;;;;;;7.55;2.00;;;;;;;23.95;83.30;100499.78;4915587;29;20138;-64
2023/07/15 11:09:12;;;;;;;;;;;;;;;23.99;80.97;100494.75;4926515;29;20051;-64
2023/07/15 11:11:39;;;;;;;3.42;1.67;;;;;;;24.23;76.77;100506.94;4917727;29;20029;-65
2023/07/15 11:14:17;;;;;;;4.80;1.58;;;;;;;24.22;73.52;100510.66;4917999;29;20111;-64
2023/07/15 11:16:43;;;;;;;5.68;1.70;;;;;;;24.30;73.76;100506.78;4921327;29;20052;-64
2023/07/15 11:19:14;;;;;;;5.25;1.75;;;;;;;24.15;72.25;100512.72;4921227;29;20051;-65
2023/07/15 11:21:44;;;;;;;4.70;1.85;;;;;;;24.07;71.36;100511.25;4922805;29;20048;-64
2023/07/15 11:24:12;;;;;;;6.00;1.75;;;;;;;24.08;73.00;100506.72;4920328;28;20073;-63
2023/07/15 11:26:40;;;;;;;;;;;;;;;24.07;70.78;100534.53;4921885;29;20055;-65
2023/07/15 11:29:21;;;;;;;4.10;2.22;;;;;;;24.08;70.75;100520.91;4910491;29;20360;-64
2023/07/15 11:31:52;;;;;;;3.40;1.50;;;;;;;24.02;70.60;100510.38;4924865;29;20090;-64